sensor_id;sensor_type;location;lat;lon;timestamp;P1;durP1;ratioP1;P2;durP2;ratioP2
18102;SDS011;9178;51.120;6.192;2022-12-10T00:00:34;38.43;;;17.33;;
18102;SDS011;9178;51.120;6.192;2022-12-10T00:03:01;38.97;;;17.80;;
18102;SDS011;9178;51.120;6.192;2022-12-10T00:05:28;38.53;;;17.27;;
18102;SDS011;9178;51.120;6.192;2022-12-10T00:07:55;42.60;;;18.67;;
18102;SDS011;9178;51.120;6.192;2022-12-10T00:10:22;41.50;;;18.57;;
18102;SDS011;9178;51.120;6.192;2022-12-10T00:12:51;44.73;;;18.20;;
18102;SDS011;9178;51.120;6.192;2022-12-10T00:15:17;37.27;;;16.93;;
18102;SDS011;9178;51.120;6.192;2022-12-10T00:17:47;39.87;;;16.93;;
18102;SDS011;9178;51.120;6.192;2022-12-10T00:20:14;38.17;;;17.97;;
18102;SDS011;9178;51.120;6.192;2022-12-10T00:22:41;42.63;;;18.30;;
18102;SDS011;9178;51.120;6.192;2022-12-10T00:25:08;38.60;;;17.57;;
18102;SDS011;9178;51.120;6.192;2022-12-10T00:27:35;36.90;;;17.27;;
18102;SDS011;9178;51.120;6.192;2022-12-10T00:30:03;41.77;;;17.90;;
18102;SDS011;9178;51.120;6.192;2022-12-10T00:32:31;36.70;;;16.87;;
18102;SDS011;9178;51.120;6.192;2022-12-10T00:34:58;36.07;;;16.67;;
18102;SDS011;9178;51.120;6.192;2022-12-10T00:37:24;39.20;;;16.33;;
18102;SDS011;9178;51.120;6.192;2022-12-10T00:39:51;38.63;;;18.00;;
18102;SDS011;9178;51.120;6.192;2022-12-10T00:42:18;38.33;;;17.93;;
18102;SDS011;9178;51.120;6.192;2022-12-10T00:44:45;42.17;;;18.67;;
18102;SDS011;9178;51.120;6.192;2022-12-10T00:47:14;42.10;;;17.07;;
18102;SDS011;9178;51.120;6.192;2022-12-10T00:49:40;36.17;;;16.90;;
18102;SDS011;9178;51.120;6.192;2022-12-10T00:52:07;41.27;;;16.53;;
18102;SDS011;9178;51.120;6.192;2022-12-10T00:54:34;42.63;;;17.80;;
18102;SDS011;9178;51.120;6.192;2022-12-10T00:57:01;38.73;;;16.73;;
18102;SDS011;9178;51.120;6.192;2022-12-10T00:59:28;35.10;;;16.57;;
18102;SDS011;9178;51.120;6.192;2022-12-10T01:01:55;35.63;;;16.03;;
18102;SDS011;9178;51.120;6.192;2022-12-10T01:04:24;38.23;;;16.53;;
18102;SDS011;9178;51.120;6.192;2022-12-10T01:06:51;31.63;;;15.43;;
18102;SDS011;9178;51.120;6.192;2022-12-10T01:09:20;32.70;;;16.00;;
18102;SDS011;9178;51.120;6.192;2022-12-10T01:11:49;36.47;;;16.27;;
18102;SDS011;9178;51.120;6.192;2022-12-10T01:14:18;38.57;;;16.17;;
18102;SDS011;9178;51.120;6.192;2022-12-10T01:16:46;37.50;;;17.10;;
18102;SDS011;9178;51.120;6.192;2022-12-10T01:19:14;31.70;;;15.13;;
18102;SDS011;9178;51.120;6.192;2022-12-10T01:21:42;31.57;;;14.97;;
18102;SDS011;9178;51.120;6.192;2022-12-10T01:24:09;32.73;;;15.83;;
18102;SDS011;9178;51.120;6.192;2022-12-10T01:26:36;36.00;;;16.60;;
18102;SDS011;9178;51.120;6.192;2022-12-10T01:29:03;36.93;;;16.23;;
18102;SDS011;9178;51.120;6.192;2022-12-10T01:31:31;45.00;;;18.90;;
18102;SDS011;9178;51.120;6.192;2022-12-10T01:34:00;42.67;;;17.97;;
18102;SDS011;9178;51.120;6.192;2022-12-10T01:36:28;41.27;;;18.73;;
18102;SDS011;9178;51.120;6.192;2022-12-10T01:38:58;42.57;;;19.47;;
18102;SDS011;9178;51.120;6.192;2022-12-10T01:41:26;41.97;;;18.47;;
18102;SDS011;9178;51.120;6.192;2022-12-10T01:43:56;46.10;;;19.33;;
18102;SDS011;9178;51.120;6.192;2022-12-10T01:46:25;45.07;;;18.97;;
18102;SDS011;9178;51.120;6.192;2022-12-10T01:48:53;51.83;;;20.30;;
18102;SDS011;9178;51.120;6.192;2022-12-10T01:51:21;46.80;;;21.23;;
18102;SDS011;9178;51.120;6.192;2022-12-10T01:53:49;49.83;;;20.97;;
18102;SDS011;9178;51.120;6.192;2022-12-10T01:56:18;49.57;;;21.20;;
18102;SDS011;9178;51.120;6.192;2022-12-10T01:58:45;49.83;;;20.87;;
18102;SDS011;9178;51.120;6.192;2022-12-10T02:01:15;49.23;;;21.23;;
18102;SDS011;9178;51.120;6.192;2022-12-10T02:03:56;52.77;;;20.53;;
18102;SDS011;9178;51.120;6.192;2022-12-10T02:06:36;48.07;;;21.20;;
18102;SDS011;9178;51.120;6.192;2022-12-10T02:09:11;50.10;;;20.87;;
18102;SDS011;9178;51.120;6.192;2022-12-10T02:11:48;56.37;;;22.33;;
18102;SDS011;9178;51.120;6.192;2022-12-10T02:14:26;48.60;;;21.13;;
18102;SDS011;9178;51.120;6.192;2022-12-10T02:16:59;53.47;;;22.30;;
18102;SDS011;9178;51.120;6.192;2022-12-10T02:19:35;63.60;;;24.10;;
18102;SDS011;9178;51.120;6.192;2022-12-10T02:22:15;66.00;;;25.63;;
18102;SDS011;9178;51.120;6.192;2022-12-10T02:24:44;65.60;;;25.67;;
18102;SDS011;9178;51.120;6.192;2022-12-10T02:27:15;68.07;;;26.03;;
18102;SDS011;9178;51.120;6.192;2022-12-10T02:29:46;87.57;;;29.27;;
18102;SDS011;9178;51.120;6.192;2022-12-10T02:32:16;81.90;;;27.47;;
18102;SDS011;9178;51.120;6.192;2022-12-10T02:34:49;69.50;;;25.93;;
18102;SDS011;9178;51.120;6.192;2022-12-10T02:37:21;69.53;;;25.90;;
18102;SDS011;9178;51.120;6.192;2022-12-10T02:39:53;66.07;;;24.60;;
18102;SDS011;9178;51.120;6.192;2022-12-10T02:42:23;70.30;;;27.27;;
18102;SDS011;9178;51.120;6.192;2022-12-10T02:44:54;67.53;;;25.33;;
18102;SDS011;9178;51.120;6.192;2022-12-10T02:47:23;66.30;;;26.83;;
18102;SDS011;9178;51.120;6.192;2022-12-10T02:49:52;70.63;;;26.80;;
18102;SDS011;9178;51.120;6.192;2022-12-10T02:52:22;83.13;;;28.07;;
18102;SDS011;9178;51.120;6.192;2022-12-10T02:54:50;70.83;;;27.17;;
18102;SDS011;9178;51.120;6.192;2022-12-10T02:57:23;70.53;;;27.03;;
18102;SDS011;9178;51.120;6.192;2022-12-10T03:00:00;66.17;;;26.37;;
18102;SDS011;9178;51.120;6.192;2022-12-10T03:02:33;70.93;;;26.60;;
18102;SDS011;9178;51.120;6.192;2022-12-10T03:05:09;61.73;;;25.30;;
18102;SDS011;9178;51.120;6.192;2022-12-10T03:07:42;73.33;;;26.90;;
18102;SDS011;9178;51.120;6.192;2022-12-10T03:10:15;67.23;;;27.70;;
18102;SDS011;9178;51.120;6.192;2022-12-10T03:12:47;75.17;;;27.37;;
18102;SDS011;9178;51.120;6.192;2022-12-10T03:15:19;66.63;;;25.83;;
18102;SDS011;9178;51.120;6.192;2022-12-10T03:17:47;73.67;;;27.00;;
18102;SDS011;9178;51.120;6.192;2022-12-10T03:20:16;69.93;;;26.77;;
18102;SDS011;9178;51.120;6.192;2022-12-10T03:22:44;69.10;;;27.87;;
18102;SDS011;9178;51.120;6.192;2022-12-10T03:25:13;77.90;;;28.67;;
18102;SDS011;9178;51.120;6.192;2022-12-10T03:27:45;68.77;;;26.93;;
18102;SDS011;9178;51.120;6.192;2022-12-10T03:30:16;68.03;;;27.07;;
18102;SDS011;9178;51.120;6.192;2022-12-10T03:32:44;69.43;;;27.27;;
18102;SDS011;9178;51.120;6.192;2022-12-10T03:35:12;69.27;;;26.83;;
18102;SDS011;9178;51.120;6.192;2022-12-10T03:37:39;68.50;;;27.53;;
18102;SDS011;9178;51.120;6.192;2022-12-10T03:40:07;64.33;;;27.07;;
18102;SDS011;9178;51.120;6.192;2022-12-10T03:42:37;71.93;;;28.27;;
18102;SDS011;9178;51.120;6.192;2022-12-10T03:45:04;65.73;;;28.13;;
18102;SDS011;9178;51.120;6.192;2022-12-10T03:47:32;59.73;;;25.47;;
18102;SDS011;9178;51.120;6.192;2022-12-10T03:50:00;72.67;;;27.30;;
18102;SDS011;9178;51.120;6.192;2022-12-10T03:52:27;74.63;;;27.43;;
18102;SDS011;9178;51.120;6.192;2022-12-10T03:54:54;60.13;;;25.27;;
18102;SDS011;9178;51.120;6.192;2022-12-10T03:57:21;64.00;;;25.73;;
18102;SDS011;9178;51.120;6.192;2022-12-10T03:59:48;70.97;;;26.93;;
18102;SDS011;9178;51.120;6.192;2022-12-10T04:02:15;62.30;;;26.70;;
18102;SDS011;9178;51.120;6.192;2022-12-10T04:04:42;66.73;;;27.17;;
18102;SDS011;9178;51.120;6.192;2022-12-10T04:07:10;64.03;;;26.77;;
18102;SDS011;9178;51.120;6.192;2022-12-10T04:09:38;64.97;;;27.80;;
18102;SDS011;9178;51.120;6.192;2022-12-10T04:12:05;63.13;;;26.90;;
18102;SDS011;9178;51.120;6.192;2022-12-10T04:14:32;65.13;;;28.10;;
18102;SDS011;9178;51.120;6.192;2022-12-10T04:17:16;71.70;;;28.03;;
18102;SDS011;9178;51.120;6.192;2022-12-10T04:19:43;68.00;;;28.90;;
18102;SDS011;9178;51.120;6.192;2022-12-10T04:22:11;64.37;;;26.37;;
18102;SDS011;9178;51.120;6.192;2022-12-10T04:24:55;67.17;;;28.70;;
18102;SDS011;9178;51.120;6.192;2022-12-10T04:27:48;58.83;;;25.43;;
18102;SDS011;9178;51.120;6.192;2022-12-10T04:30:15;63.07;;;28.07;;
18102;SDS011;9178;51.120;6.192;2022-12-10T04:32:42;66.00;;;27.17;;
18102;SDS011;9178;51.120;6.192;2022-12-10T04:35:09;70.70;;;28.17;;
18102;SDS011;9178;51.120;6.192;2022-12-10T04:37:37;67.73;;;28.33;;
18102;SDS011;9178;51.120;6.192;2022-12-10T04:40:05;63.60;;;27.63;;
18102;SDS011;9178;51.120;6.192;2022-12-10T04:42:32;71.80;;;29.10;;
18102;SDS011;9178;51.120;6.192;2022-12-10T04:44:59;68.53;;;29.17;;
18102;SDS011;9178;51.120;6.192;2022-12-10T04:47:26;67.77;;;28.30;;
18102;SDS011;9178;51.120;6.192;2022-12-10T04:49:53;75.10;;;30.60;;
18102;SDS011;9178;51.120;6.192;2022-12-10T04:52:20;70.70;;;29.53;;
18102;SDS011;9178;51.120;6.192;2022-12-10T04:54:48;74.57;;;29.50;;
18102;SDS011;9178;51.120;6.192;2022-12-10T04:57:15;77.13;;;30.27;;
18102;SDS011;9178;51.120;6.192;2022-12-10T04:59:42;70.17;;;29.90;;
18102;SDS011;9178;51.120;6.192;2022-12-10T05:02:09;81.47;;;31.13;;
18102;SDS011;9178;51.120;6.192;2022-12-10T05:04:36;73.03;;;29.70;;
18102;SDS011;9178;51.120;6.192;2022-12-10T05:07:03;72.77;;;28.37;;
18102;SDS011;9178;51.120;6.192;2022-12-10T05:09:29;76.50;;;29.83;;
18102;SDS011;9178;51.120;6.192;2022-12-10T05:11:58;77.87;;;30.33;;
18102;SDS011;9178;51.120;6.192;2022-12-10T05:14:25;85.93;;;31.17;;
18102;SDS011;9178;51.120;6.192;2022-12-10T05:16:52;86.93;;;32.73;;
18102;SDS011;9178;51.120;6.192;2022-12-10T05:19:19;97.13;;;34.70;;
18102;SDS011;9178;51.120;6.192;2022-12-10T05:21:48;82.93;;;31.00;;
18102;SDS011;9178;51.120;6.192;2022-12-10T05:24:33;90.67;;;30.63;;
18102;SDS011;9178;51.120;6.192;2022-12-10T05:27:02;77.27;;;28.63;;
18102;SDS011;9178;51.120;6.192;2022-12-10T05:29:29;80.33;;;31.40;;
18102;SDS011;9178;51.120;6.192;2022-12-10T05:31:55;81.80;;;30.77;;
18102;SDS011;9178;51.120;6.192;2022-12-10T05:34:22;80.20;;;31.00;;
18102;SDS011;9178;51.120;6.192;2022-12-10T05:36:49;79.73;;;33.00;;
18102;SDS011;9178;51.120;6.192;2022-12-10T05:39:16;78.43;;;28.40;;
18102;SDS011;9178;51.120;6.192;2022-12-10T05:41:43;74.40;;;28.97;;
18102;SDS011;9178;51.120;6.192;2022-12-10T05:44:12;78.43;;;29.30;;
18102;SDS011;9178;51.120;6.192;2022-12-10T05:46:39;73.60;;;28.77;;
18102;SDS011;9178;51.120;6.192;2022-12-10T05:49:06;75.73;;;28.43;;
18102;SDS011;9178;51.120;6.192;2022-12-10T05:51:34;73.00;;;27.53;;
18102;SDS011;9178;51.120;6.192;2022-12-10T05:54:04;68.87;;;26.23;;
18102;SDS011;9178;51.120;6.192;2022-12-10T05:56:32;64.93;;;26.30;;
18102;SDS011;9178;51.120;6.192;2022-12-10T05:59:01;70.87;;;27.63;;
18102;SDS011;9178;51.120;6.192;2022-12-10T06:01:30;68.17;;;26.47;;
18102;SDS011;9178;51.120;6.192;2022-12-10T06:03:59;73.67;;;25.63;;
18102;SDS011;9178;51.120;6.192;2022-12-10T06:06:28;57.07;;;24.77;;
18102;SDS011;9178;51.120;6.192;2022-12-10T06:08:56;56.87;;;23.37;;
18102;SDS011;9178;51.120;6.192;2022-12-10T06:11:23;56.47;;;22.53;;
18102;SDS011;9178;51.120;6.192;2022-12-10T06:13:51;50.80;;;22.53;;
18102;SDS011;9178;51.120;6.192;2022-12-10T06:16:19;54.43;;;22.60;;
18102;SDS011;9178;51.120;6.192;2022-12-10T06:18:48;55.30;;;22.37;;
18102;SDS011;9178;51.120;6.192;2022-12-10T06:21:15;60.10;;;24.23;;
18102;SDS011;9178;51.120;6.192;2022-12-10T06:23:43;47.13;;;20.47;;
18102;SDS011;9178;51.120;6.192;2022-12-10T06:26:11;45.40;;;19.50;;
18102;SDS011;9178;51.120;6.192;2022-12-10T06:28:39;43.63;;;19.37;;
18102;SDS011;9178;51.120;6.192;2022-12-10T06:31:06;43.67;;;20.13;;
18102;SDS011;9178;51.120;6.192;2022-12-10T06:33:33;50.43;;;20.33;;
18102;SDS011;9178;51.120;6.192;2022-12-10T06:36:04;41.50;;;18.93;;
18102;SDS011;9178;51.120;6.192;2022-12-10T06:38:32;43.13;;;18.97;;
18102;SDS011;9178;51.120;6.192;2022-12-10T06:40:59;45.47;;;19.20;;
18102;SDS011;9178;51.120;6.192;2022-12-10T06:43:27;46.60;;;20.57;;
18102;SDS011;9178;51.120;6.192;2022-12-10T06:45:54;47.70;;;20.23;;
18102;SDS011;9178;51.120;6.192;2022-12-10T06:48:22;50.23;;;21.87;;
18102;SDS011;9178;51.120;6.192;2022-12-10T06:50:49;51.33;;;21.40;;
18102;SDS011;9178;51.120;6.192;2022-12-10T06:53:17;56.33;;;22.77;;
18102;SDS011;9178;51.120;6.192;2022-12-10T06:55:44;52.70;;;21.33;;
18102;SDS011;9178;51.120;6.192;2022-12-10T06:58:11;53.57;;;21.53;;
18102;SDS011;9178;51.120;6.192;2022-12-10T07:00:37;58.40;;;23.83;;
18102;SDS011;9178;51.120;6.192;2022-12-10T07:03:04;56.23;;;22.53;;
18102;SDS011;9178;51.120;6.192;2022-12-10T07:05:31;65.90;;;25.67;;
18102;SDS011;9178;51.120;6.192;2022-12-10T07:07:58;65.70;;;24.87;;
18102;SDS011;9178;51.120;6.192;2022-12-10T07:10:26;65.00;;;24.00;;
18102;SDS011;9178;51.120;6.192;2022-12-10T07:12:53;62.17;;;24.03;;
18102;SDS011;9178;51.120;6.192;2022-12-10T07:15:20;61.63;;;24.80;;
18102;SDS011;9178;51.120;6.192;2022-12-10T07:17:48;58.87;;;23.40;;
18102;SDS011;9178;51.120;6.192;2022-12-10T07:20:16;55.97;;;22.57;;
18102;SDS011;9178;51.120;6.192;2022-12-10T07:22:43;51.07;;;21.17;;
18102;SDS011;9178;51.120;6.192;2022-12-10T07:25:10;57.67;;;22.47;;
18102;SDS011;9178;51.120;6.192;2022-12-10T07:27:38;53.93;;;21.93;;
18102;SDS011;9178;51.120;6.192;2022-12-10T07:30:05;55.07;;;21.57;;
18102;SDS011;9178;51.120;6.192;2022-12-10T07:32:33;53.20;;;21.37;;
18102;SDS011;9178;51.120;6.192;2022-12-10T07:35:00;58.20;;;22.10;;
18102;SDS011;9178;51.120;6.192;2022-12-10T07:37:27;58.13;;;22.80;;
18102;SDS011;9178;51.120;6.192;2022-12-10T07:39:54;56.83;;;22.53;;
18102;SDS011;9178;51.120;6.192;2022-12-10T07:42:20;58.57;;;21.80;;
18102;SDS011;9178;51.120;6.192;2022-12-10T07:44:49;57.10;;;24.00;;
18102;SDS011;9178;51.120;6.192;2022-12-10T07:47:16;63.13;;;23.30;;
18102;SDS011;9178;51.120;6.192;2022-12-10T07:49:43;53.20;;;22.20;;
18102;SDS011;9178;51.120;6.192;2022-12-10T07:52:09;63.13;;;23.53;;
18102;SDS011;9178;51.120;6.192;2022-12-10T07:54:36;59.43;;;23.73;;
18102;SDS011;9178;51.120;6.192;2022-12-10T07:57:03;58.83;;;22.83;;
18102;SDS011;9178;51.120;6.192;2022-12-10T07:59:30;55.90;;;21.40;;
18102;SDS011;9178;51.120;6.192;2022-12-10T08:01:58;53.70;;;20.23;;
18102;SDS011;9178;51.120;6.192;2022-12-10T08:04:27;54.87;;;21.23;;
18102;SDS011;9178;51.120;6.192;2022-12-10T08:06:54;45.60;;;19.40;;
18102;SDS011;9178;51.120;6.192;2022-12-10T08:09:21;44.50;;;18.47;;
18102;SDS011;9178;51.120;6.192;2022-12-10T08:11:49;44.00;;;19.10;;
18102;SDS011;9178;51.120;6.192;2022-12-10T08:14:16;42.67;;;18.50;;
18102;SDS011;9178;51.120;6.192;2022-12-10T08:16:42;48.40;;;20.60;;
18102;SDS011;9178;51.120;6.192;2022-12-10T08:19:11;47.23;;;20.23;;
18102;SDS011;9178;51.120;6.192;2022-12-10T08:21:38;47.23;;;19.83;;
18102;SDS011;9178;51.120;6.192;2022-12-10T08:24:05;44.33;;;19.57;;
18102;SDS011;9178;51.120;6.192;2022-12-10T08:26:32;43.13;;;17.80;;
18102;SDS011;9178;51.120;6.192;2022-12-10T08:28:59;43.03;;;18.87;;
18102;SDS011;9178;51.120;6.192;2022-12-10T08:31:27;43.30;;;19.73;;
18102;SDS011;9178;51.120;6.192;2022-12-10T08:33:54;49.07;;;21.23;;
18102;SDS011;9178;51.120;6.192;2022-12-10T08:36:22;46.90;;;21.30;;
18102;SDS011;9178;51.120;6.192;2022-12-10T08:38:49;47.57;;;20.90;;
18102;SDS011;9178;51.120;6.192;2022-12-10T08:41:17;44.37;;;18.80;;
18102;SDS011;9178;51.120;6.192;2022-12-10T08:43:45;44.37;;;20.27;;
18102;SDS011;9178;51.120;6.192;2022-12-10T08:46:12;50.80;;;21.97;;
18102;SDS011;9178;51.120;6.192;2022-12-10T08:48:40;47.70;;;19.83;;
18102;SDS011;9178;51.120;6.192;2022-12-10T08:51:07;39.57;;;19.43;;
18102;SDS011;9178;51.120;6.192;2022-12-10T08:53:36;45.73;;;20.00;;
18102;SDS011;9178;51.120;6.192;2022-12-10T08:56:03;45.67;;;19.17;;
18102;SDS011;9178;51.120;6.192;2022-12-10T08:58:30;42.43;;;19.53;;
18102;SDS011;9178;51.120;6.192;2022-12-10T09:00:57;41.73;;;20.23;;
18102;SDS011;9178;51.120;6.192;2022-12-10T09:03:26;46.10;;;20.03;;
18102;SDS011;9178;51.120;6.192;2022-12-10T09:05:53;47.57;;;20.43;;
18102;SDS011;9178;51.120;6.192;2022-12-10T09:08:20;45.40;;;20.17;;
18102;SDS011;9178;51.120;6.192;2022-12-10T09:10:48;51.83;;;21.93;;
18102;SDS011;9178;51.120;6.192;2022-12-10T09:13:15;47.63;;;19.83;;
18102;SDS011;9178;51.120;6.192;2022-12-10T09:15:48;45.27;;;20.77;;
18102;SDS011;9178;51.120;6.192;2022-12-10T09:18:16;49.60;;;20.47;;
18102;SDS011;9178;51.120;6.192;2022-12-10T09:20:43;44.80;;;20.40;;
18102;SDS011;9178;51.120;6.192;2022-12-10T09:23:10;44.40;;;21.83;;
18102;SDS011;9178;51.120;6.192;2022-12-10T09:25:37;47.40;;;21.37;;
18102;SDS011;9178;51.120;6.192;2022-12-10T09:28:05;50.30;;;23.00;;
18102;SDS011;9178;51.120;6.192;2022-12-10T09:30:32;52.73;;;21.40;;
18102;SDS011;9178;51.120;6.192;2022-12-10T09:32:59;48.40;;;21.53;;
18102;SDS011;9178;51.120;6.192;2022-12-10T09:35:26;49.47;;;21.27;;
18102;SDS011;9178;51.120;6.192;2022-12-10T09:37:53;52.03;;;21.60;;
18102;SDS011;9178;51.120;6.192;2022-12-10T09:40:21;50.67;;;21.67;;
18102;SDS011;9178;51.120;6.192;2022-12-10T09:42:54;53.53;;;23.70;;
18102;SDS011;9178;51.120;6.192;2022-12-10T09:45:29;50.47;;;22.43;;
18102;SDS011;9178;51.120;6.192;2022-12-10T09:48:04;46.90;;;21.13;;
18102;SDS011;9178;51.120;6.192;2022-12-10T09:50:44;46.07;;;21.13;;
18102;SDS011;9178;51.120;6.192;2022-12-10T09:53:18;47.87;;;20.97;;
18102;SDS011;9178;51.120;6.192;2022-12-10T09:55:47;49.90;;;19.93;;
18102;SDS011;9178;51.120;6.192;2022-12-10T09:58:16;43.87;;;20.03;;
18102;SDS011;9178;51.120;6.192;2022-12-10T10:00:47;47.43;;;21.53;;
18102;SDS011;9178;51.120;6.192;2022-12-10T10:03:15;45.97;;;19.27;;
18102;SDS011;9178;51.120;6.192;2022-12-10T10:05:43;50.00;;;20.70;;
18102;SDS011;9178;51.120;6.192;2022-12-10T10:08:13;50.10;;;21.83;;
18102;SDS011;9178;51.120;6.192;2022-12-10T10:10:48;47.73;;;20.83;;
18102;SDS011;9178;51.120;6.192;2022-12-10T10:13:16;49.10;;;21.53;;
18102;SDS011;9178;51.120;6.192;2022-12-10T10:15:53;52.77;;;21.87;;
18102;SDS011;9178;51.120;6.192;2022-12-10T10:18:23;48.50;;;21.13;;
18102;SDS011;9178;51.120;6.192;2022-12-10T10:20:56;49.40;;;21.47;;
18102;SDS011;9178;51.120;6.192;2022-12-10T10:23:24;52.23;;;22.63;;
18102;SDS011;9178;51.120;6.192;2022-12-10T10:25:51;50.70;;;22.20;;
18102;SDS011;9178;51.120;6.192;2022-12-10T10:28:19;48.00;;;22.23;;
18102;SDS011;9178;51.120;6.192;2022-12-10T10:30:47;58.90;;;24.27;;
18102;SDS011;9178;51.120;6.192;2022-12-10T10:33:17;56.60;;;24.00;;
18102;SDS011;9178;51.120;6.192;2022-12-10T10:35:45;51.13;;;22.53;;
18102;SDS011;9178;51.120;6.192;2022-12-10T10:38:16;58.20;;;23.97;;
18102;SDS011;9178;51.120;6.192;2022-12-10T10:40:49;56.13;;;23.47;;
18102;SDS011;9178;51.120;6.192;2022-12-10T10:43:19;58.47;;;24.53;;
18102;SDS011;9178;51.120;6.192;2022-12-10T10:45:49;57.40;;;24.47;;
18102;SDS011;9178;51.120;6.192;2022-12-10T10:48:21;57.87;;;25.40;;
18102;SDS011;9178;51.120;6.192;2022-12-10T10:50:50;56.77;;;24.63;;
18102;SDS011;9178;51.120;6.192;2022-12-10T10:53:23;53.63;;;23.80;;
18102;SDS011;9178;51.120;6.192;2022-12-10T10:55:55;54.97;;;24.70;;
18102;SDS011;9178;51.120;6.192;2022-12-10T10:58:34;53.60;;;23.47;;
18102;SDS011;9178;51.120;6.192;2022-12-10T11:01:02;46.77;;;21.90;;
18102;SDS011;9178;51.120;6.192;2022-12-10T11:03:32;54.67;;;23.40;;
18102;SDS011;9178;51.120;6.192;2022-12-10T11:06:01;49.20;;;21.77;;
18102;SDS011;9178;51.120;6.192;2022-12-10T11:08:32;50.40;;;22.47;;
18102;SDS011;9178;51.120;6.192;2022-12-10T11:11:02;52.80;;;22.43;;
18102;SDS011;9178;51.120;6.192;2022-12-10T11:13:31;52.47;;;22.60;;
18102;SDS011;9178;51.120;6.192;2022-12-10T11:16:00;46.37;;;21.30;;
18102;SDS011;9178;51.120;6.192;2022-12-10T11:18:38;52.33;;;23.47;;
18102;SDS011;9178;51.120;6.192;2022-12-10T11:21:08;54.00;;;23.77;;
18102;SDS011;9178;51.120;6.192;2022-12-10T11:23:44;52.57;;;24.33;;
18102;SDS011;9178;51.120;6.192;2022-12-10T11:26:19;47.57;;;22.83;;
18102;SDS011;9178;51.120;6.192;2022-12-10T11:28:58;48.30;;;22.63;;
18102;SDS011;9178;51.120;6.192;2022-12-10T11:31:39;51.23;;;22.87;;
18102;SDS011;9178;51.120;6.192;2022-12-10T11:34:18;44.47;;;21.10;;
18102;SDS011;9178;51.120;6.192;2022-12-10T11:36:53;45.67;;;23.63;;
18102;SDS011;9178;51.120;6.192;2022-12-10T11:39:32;46.40;;;21.70;;
18102;SDS011;9178;51.120;6.192;2022-12-10T11:42:14;47.03;;;21.50;;
18102;SDS011;9178;51.120;6.192;2022-12-10T11:44:49;43.97;;;20.83;;
18102;SDS011;9178;51.120;6.192;2022-12-10T11:47:27;47.00;;;21.60;;
18102;SDS011;9178;51.120;6.192;2022-12-10T11:50:07;52.00;;;22.63;;
18102;SDS011;9178;51.120;6.192;2022-12-10T11:52:48;48.97;;;23.60;;
18102;SDS011;9178;51.120;6.192;2022-12-10T11:55:29;52.63;;;25.23;;
18102;SDS011;9178;51.120;6.192;2022-12-10T11:58:05;52.30;;;24.00;;
18102;SDS011;9178;51.120;6.192;2022-12-10T12:00:57;52.10;;;24.10;;
18102;SDS011;9178;51.120;6.192;2022-12-10T12:06:26;51.67;;;24.80;;
18102;SDS011;9178;51.120;6.192;2022-12-10T12:09:08;49.53;;;24.63;;
18102;SDS011;9178;51.120;6.192;2022-12-10T12:11:47;54.83;;;25.90;;
18102;SDS011;9178;51.120;6.192;2022-12-10T12:14:22;54.20;;;25.90;;
18102;SDS011;9178;51.120;6.192;2022-12-10T12:16:55;51.70;;;24.40;;
18102;SDS011;9178;51.120;6.192;2022-12-10T12:19:28;53.13;;;25.63;;
18102;SDS011;9178;51.120;6.192;2022-12-10T12:22:04;48.30;;;23.33;;
18102;SDS011;9178;51.120;6.192;2022-12-10T12:24:39;49.17;;;23.93;;
18102;SDS011;9178;51.120;6.192;2022-12-10T12:27:10;47.50;;;24.80;;
18102;SDS011;9178;51.120;6.192;2022-12-10T12:29:44;50.03;;;23.70;;
18102;SDS011;9178;51.120;6.192;2022-12-10T12:32:18;48.80;;;24.90;;
18102;SDS011;9178;51.120;6.192;2022-12-10T12:34:52;47.20;;;24.63;;
18102;SDS011;9178;51.120;6.192;2022-12-10T12:37:25;49.23;;;25.43;;
18102;SDS011;9178;51.120;6.192;2022-12-10T12:39:59;47.03;;;23.67;;
18102;SDS011;9178;51.120;6.192;2022-12-10T12:42:35;43.57;;;22.50;;
18102;SDS011;9178;51.120;6.192;2022-12-10T12:45:10;44.57;;;23.20;;
18102;SDS011;9178;51.120;6.192;2022-12-10T12:47:41;48.23;;;24.20;;
18102;SDS011;9178;51.120;6.192;2022-12-10T12:50:19;48.23;;;24.13;;
18102;SDS011;9178;51.120;6.192;2022-12-10T12:52:53;48.67;;;22.97;;
18102;SDS011;9178;51.120;6.192;2022-12-10T12:55:24;49.67;;;25.30;;
18102;SDS011;9178;51.120;6.192;2022-12-10T12:57:56;49.07;;;24.43;;
18102;SDS011;9178;51.120;6.192;2022-12-10T13:00:35;49.83;;;25.60;;
18102;SDS011;9178;51.120;6.192;2022-12-10T13:03:07;45.43;;;24.00;;
18102;SDS011;9178;51.120;6.192;2022-12-10T13:05:44;47.90;;;24.40;;
18102;SDS011;9178;51.120;6.192;2022-12-10T13:08:27;48.90;;;23.63;;
18102;SDS011;9178;51.120;6.192;2022-12-10T13:11:00;45.30;;;23.17;;
18102;SDS011;9178;51.120;6.192;2022-12-10T13:16:47;50.93;;;24.60;;
18102;SDS011;9178;51.120;6.192;2022-12-10T13:19:26;50.20;;;25.20;;
18102;SDS011;9178;51.120;6.192;2022-12-10T13:21:58;53.27;;;25.40;;
18102;SDS011;9178;51.120;6.192;2022-12-10T13:24:59;47.13;;;23.97;;
18102;SDS011;9178;51.120;6.192;2022-12-10T13:27:38;51.67;;;25.03;;
18102;SDS011;9178;51.120;6.192;2022-12-10T13:30:25;50.50;;;24.70;;
18102;SDS011;9178;51.120;6.192;2022-12-10T13:33:02;51.43;;;25.73;;
18102;SDS011;9178;51.120;6.192;2022-12-10T13:35:41;50.40;;;25.67;;
18102;SDS011;9178;51.120;6.192;2022-12-10T13:38:18;49.20;;;25.10;;
18102;SDS011;9178;51.120;6.192;2022-12-10T13:40:56;50.53;;;25.47;;
18102;SDS011;9178;51.120;6.192;2022-12-10T13:43:40;57.43;;;26.20;;
18102;SDS011;9178;51.120;6.192;2022-12-10T13:46:26;55.70;;;28.63;;
18102;SDS011;9178;51.120;6.192;2022-12-10T13:48:58;48.87;;;23.57;;
18102;SDS011;9178;51.120;6.192;2022-12-10T13:51:36;54.27;;;25.07;;
18102;SDS011;9178;51.120;6.192;2022-12-10T13:54:24;55.47;;;25.80;;
18102;SDS011;9178;51.120;6.192;2022-12-10T13:57:05;53.90;;;25.13;;
18102;SDS011;9178;51.120;6.192;2022-12-10T13:59:42;54.63;;;25.83;;
18102;SDS011;9178;51.120;6.192;2022-12-10T14:02:28;56.07;;;26.47;;
18102;SDS011;9178;51.120;6.192;2022-12-10T14:05:17;56.13;;;24.33;;
18102;SDS011;9178;51.120;6.192;2022-12-10T14:08:01;53.77;;;23.77;;
18102;SDS011;9178;51.120;6.192;2022-12-10T14:10:31;60.80;;;26.90;;
18102;SDS011;9178;51.120;6.192;2022-12-10T14:12:59;55.10;;;24.77;;
18102;SDS011;9178;51.120;6.192;2022-12-10T14:15:28;57.97;;;26.63;;
18102;SDS011;9178;51.120;6.192;2022-12-10T14:17:58;60.80;;;26.80;;
18102;SDS011;9178;51.120;6.192;2022-12-10T14:20:29;62.33;;;26.67;;
18102;SDS011;9178;51.120;6.192;2022-12-10T14:23:02;58.63;;;25.47;;
18102;SDS011;9178;51.120;6.192;2022-12-10T14:25:45;58.33;;;27.03;;
18102;SDS011;9178;51.120;6.192;2022-12-10T14:28:13;58.13;;;26.73;;
18102;SDS011;9178;51.120;6.192;2022-12-10T14:30:42;62.80;;;28.17;;
18102;SDS011;9178;51.120;6.192;2022-12-10T14:33:10;66.07;;;28.43;;
18102;SDS011;9178;51.120;6.192;2022-12-10T14:35:43;61.57;;;27.57;;
18102;SDS011;9178;51.120;6.192;2022-12-10T14:38:16;63.43;;;27.27;;
18102;SDS011;9178;51.120;6.192;2022-12-10T14:40:46;64.50;;;26.17;;
18102;SDS011;9178;51.120;6.192;2022-12-10T14:43:17;67.37;;;28.20;;
18102;SDS011;9178;51.120;6.192;2022-12-10T14:45:48;71.87;;;28.70;;
18102;SDS011;9178;51.120;6.192;2022-12-10T14:48:20;66.43;;;27.63;;
18102;SDS011;9178;51.120;6.192;2022-12-10T14:50:49;65.53;;;27.43;;
18102;SDS011;9178;51.120;6.192;2022-12-10T14:53:18;64.97;;;27.53;;
18102;SDS011;9178;51.120;6.192;2022-12-10T14:55:48;70.37;;;26.90;;
18102;SDS011;9178;51.120;6.192;2022-12-10T14:58:26;68.53;;;27.47;;